Delray Beach, FL (33444)

10:27 AM EDT on May 25, 2015 (GMT -0400)
Delray Beach | | Change Station
CLOSE
Current Station
Personal Weather Station
Location: Delray Beach, FL
Elevation: 30 ft
Nearby Weather Stations

Elev 30 ft 26.47 °N, 80.09 °W | Updated 2 seconds ago

Mostly Cloudy
Mostly Cloudy
93.9 °F
Feels Like 130 °F
N
4.7
Wind Variable Wind from SSE
Gusts 5.3 mph

Today
High -- | Low -- °F
--% Chance of Precip.
Yesterday
High -- | Low -- °F
Precip. -- in
6:29 AM 8:05 PM
Waxing Crescent, 49% visible
Pressure 30.18 in
Visibility 9.0 miles
Clouds Few 2000 ft
Heat Index 130 °F
Dew Point 87 °F
Humidity 81%
Rainfall 0.00 in
Snow Depth Not available.
UV 7 out of 12
Pollen 5.10 out of 12
Air Quality Not available.
Flu Activity Sporadic
METAR KPMP 251353Z 09012KT 9SM FEW020 29/23 A3018 RMK AO2 SLP220 T02890233

More Conditions Fewer Conditions

Pressure 30.18 in
Visibility 9.0 miles
Clouds Few 2000 ft
Heat Index 130 °F
Dew Point 87 °F
Humidity 81%
Rainfall 0.00 in
Snow Depth Not available.
UV 7 out of 12
Pollen 5.10 out of 12
Air Quality Not available.
Flu Activity Sporadic
METAR KPMP 251353Z 09012KT 9SM FEW020 29/23 A3018 RMK AO2 SLP220 T02890233

More Conditions Fewer Conditions

10-Day Weather Forecast

Almanac

Astronomy

May. 25, 2015 Rise Set
Actual Time
Civil Twilight
Nautical Twilight
Astronomical Twilight
Moon
Length of Visible Light
Length of Day
Tomorrow will be .
, % of the Moon is Illuminated

Today's Extremes

State Highs State Lows

Community

WunderPhotos

Upload Photos

1,824,025 photos uploaded!

WunderBlogs® & News

Nearby

Air Quality

  Air Quality AQ Index Pollutant
Not available.

Snow Depth

Station Depth Elevation

Earthquake Activity

City Distance Mag. Time & Date
Minimum magnitude displayed is 2.5.

Coastal Water Temperatures

Place Temperature

Stations

Nearby Weather Stations

Station Location Temp. Windchill Dew Point Humidity Wind Precip. Elev Updated Type